sensor_id;sensor_type;location;lat;lon;timestamp;temperature;humidity
72277;SHT30;61204;49.980;8.358;2023-04-19T00:01:48;10.75;77.38
72277;SHT30;61204;49.980;8.358;2023-04-19T00:04:13;10.75;77.20
72277;SHT30;61204;49.980;8.358;2023-04-19T00:06:39;10.73;77.54
72277;SHT30;61204;49.980;8.358;2023-04-19T00:09:06;10.70;77.41
72277;SHT30;61204;49.980;8.358;2023-04-19T00:11:32;10.73;77.49
72277;SHT30;61204;49.980;8.358;2023-04-19T00:13:58;10.73;77.48
72277;SHT30;61204;49.980;8.358;2023-04-19T00:16:23;10.76;77.37
72277;SHT30;61204;49.980;8.358;2023-04-19T00:18:48;10.76;77.26
72277;SHT30;61204;49.980;8.358;2023-04-19T00:21:14;10.77;76.97
72277;SHT30;61204;49.980;8.358;2023-04-19T00:23:39;10.79;77.07
72277;SHT30;61204;49.980;8.358;2023-04-19T00:26:05;10.77;77.19
72277;SHT30;61204;49.980;8.358;2023-04-19T00:28:30;10.76;77.08
72277;SHT30;61204;49.980;8.358;2023-04-19T00:30:57;10.79;77.27
72277;SHT30;61204;49.980;8.358;2023-04-19T00:33:26;10.79;77.04
72277;SHT30;61204;49.980;8.358;2023-04-19T00:35:51;10.80;76.80
72277;SHT30;61204;49.980;8.358;2023-04-19T00:38:17;10.80;76.87
72277;SHT30;61204;49.980;8.358;2023-04-19T00:40:45;10.77;76.98
72277;SHT30;61204;49.980;8.358;2023-04-19T00:43:11;10.79;77.05
72277;SHT30;61204;49.980;8.358;2023-04-19T00:45:36;10.79;76.98
72277;SHT30;61204;49.980;8.358;2023-04-19T00:48:02;10.73;77.18
72277;SHT30;61204;49.980;8.358;2023-04-19T00:50:28;10.70;77.45
72277;SHT30;61204;49.980;8.358;2023-04-19T00:52:54;10.67;77.86
72277;SHT30;61204;49.980;8.358;2023-04-19T00:55:21;10.66;78.02
72277;SHT30;61204;49.980;8.358;2023-04-19T00:57:47;10.60;78.22
72277;SHT30;61204;49.980;8.358;2023-04-19T01:00:13;10.66;78.01
72277;SHT30;61204;49.980;8.358;2023-04-19T01:02:39;10.62;78.21
72277;SHT30;61204;49.980;8.358;2023-04-19T01:05:07;10.60;78.48
72277;SHT30;61204;49.980;8.358;2023-04-19T01:07:33;10.56;78.59
72277;SHT30;61204;49.980;8.358;2023-04-19T01:09:59;10.58;78.53
72277;SHT30;61204;49.980;8.358;2023-04-19T01:12:24;10.60;78.56
72277;SHT30;61204;49.980;8.358;2023-04-19T01:14:50;10.59;78.35
72277;SHT30;61204;49.980;8.358;2023-04-19T01:17:16;10.59;78.49
72277;SHT30;61204;49.980;8.358;2023-04-19T01:19:43;10.56;78.73
72277;SHT30;61204;49.980;8.358;2023-04-19T01:22:08;10.52;78.99
72277;SHT30;61204;49.980;8.358;2023-04-19T01:24:36;10.53;78.80
72277;SHT30;61204;49.980;8.358;2023-04-19T01:27:01;10.50;78.88
72277;SHT30;61204;49.980;8.358;2023-04-19T01:29:27;10.52;79.23
72277;SHT30;61204;49.980;8.358;2023-04-19T01:31:53;10.50;79.22
72277;SHT30;61204;49.980;8.358;2023-04-19T01:34:19;10.56;78.94
72277;SHT30;61204;49.980;8.358;2023-04-19T01:36:44;10.55;78.89
72277;SHT30;61204;49.980;8.358;2023-04-19T01:39:10;10.60;78.67
72277;SHT30;61204;49.980;8.358;2023-04-19T01:41:38;10.63;78.62
72277;SHT30;61204;49.980;8.358;2023-04-19T01:44:04;10.63;78.55
72277;SHT30;61204;49.980;8.358;2023-04-19T01:46:29;10.62;78.54
72277;SHT30;61204;49.980;8.358;2023-04-19T01:48:55;10.62;78.68
72277;SHT30;61204;49.980;8.358;2023-04-19T01:51:20;10.60;78.81
72277;SHT30;61204;49.980;8.358;2023-04-19T01:53:48;10.59;78.81
72277;SHT30;61204;49.980;8.358;2023-04-19T01:56:19;10.59;78.77
72277;SHT30;61204;49.980;8.358;2023-04-19T01:58:46;10.56;78.80
72277;SHT30;61204;49.980;8.358;2023-04-19T02:01:11;10.60;78.60
72277;SHT30;61204;49.980;8.358;2023-04-19T02:03:40;10.59;78.77
72277;SHT30;61204;49.980;8.358;2023-04-19T02:06:09;10.55;78.96
72277;SHT30;61204;49.980;8.358;2023-04-19T02:08:37;10.55;79.07
72277;SHT30;61204;49.980;8.358;2023-04-19T02:11:10;10.49;79.22
72277;SHT30;61204;49.980;8.358;2023-04-19T02:13:40;10.48;79.54
72277;SHT30;61204;49.980;8.358;2023-04-19T02:16:07;10.46;79.53
72277;SHT30;61204;49.980;8.358;2023-04-19T02:18:36;10.45;79.78
72277;SHT30;61204;49.980;8.358;2023-04-19T02:21:06;10.44;79.81
72277;SHT30;61204;49.980;8.358;2023-04-19T02:23:33;10.44;79.78
72277;SHT30;61204;49.980;8.358;2023-04-19T02:25:59;10.41;80.00
72277;SHT30;61204;49.980;8.358;2023-04-19T02:28:31;10.39;80.40
72277;SHT30;61204;49.980;8.358;2023-04-19T02:30:57;10.34;80.46
72277;SHT30;61204;49.980;8.358;2023-04-19T02:33:25;10.34;80.62
72277;SHT30;61204;49.980;8.358;2023-04-19T02:35:53;10.31;80.35
72277;SHT30;61204;49.980;8.358;2023-04-19T02:38:18;10.28;80.60
72277;SHT30;61204;49.980;8.358;2023-04-19T02:40:44;10.25;80.70
72277;SHT30;61204;49.980;8.358;2023-04-19T02:43:12;10.27;80.60
72277;SHT30;61204;49.980;8.358;2023-04-19T02:45:37;10.24;80.71
72277;SHT30;61204;49.980;8.358;2023-04-19T02:48:03;10.21;80.73
72277;SHT30;61204;49.980;8.358;2023-04-19T02:50:28;10.21;80.94
72277;SHT30;61204;49.980;8.358;2023-04-19T02:52:56;10.17;80.92
72277;SHT30;61204;49.980;8.358;2023-04-19T02:55:22;10.18;81.00
72277;SHT30;61204;49.980;8.358;2023-04-19T02:57:50;10.15;80.89
72277;SHT30;61204;49.980;8.358;2023-04-19T03:00:18;10.14;81.25
72277;SHT30;61204;49.980;8.358;2023-04-19T03:02:43;10.11;81.34
72277;SHT30;61204;49.980;8.358;2023-04-19T03:05:09;10.10;81.29
72277;SHT30;61204;49.980;8.358;2023-04-19T03:07:35;10.07;81.55
72277;SHT30;61204;49.980;8.358;2023-04-19T03:10:00;10.07;81.54
72277;SHT30;61204;49.980;8.358;2023-04-19T03:12:26;10.04;81.50
72277;SHT30;61204;49.980;8.358;2023-04-19T03:14:51;10.05;81.57
72277;SHT30;61204;49.980;8.358;2023-04-19T03:17:17;10.08;81.46
72277;SHT30;61204;49.980;8.358;2023-04-19T03:19:42;10.08;81.63
72277;SHT30;61204;49.980;8.358;2023-04-19T03:22:08;10.07;81.57
72277;SHT30;61204;49.980;8.358;2023-04-19T03:24:33;10.07;81.58
72277;SHT30;61204;49.980;8.358;2023-04-19T03:26:59;10.03;81.76
72277;SHT30;61204;49.980;8.358;2023-04-19T03:29:25;9.98;81.93
72277;SHT30;61204;49.980;8.358;2023-04-19T03:31:50;9.97;82.06
72277;SHT30;61204;49.980;8.358;2023-04-19T03:34:16;9.93;82.38
72277;SHT30;61204;49.980;8.358;2023-04-19T03:36:41;9.86;82.44
72277;SHT30;61204;49.980;8.358;2023-04-19T03:39:07;9.83;82.55
72277;SHT30;61204;49.980;8.358;2023-04-19T03:41:32;9.77;82.85
72277;SHT30;61204;49.980;8.358;2023-04-19T03:43:58;9.80;82.73
72277;SHT30;61204;49.980;8.358;2023-04-19T03:46:24;9.76;82.89
72277;SHT30;61204;49.980;8.358;2023-04-19T03:48:49;9.75;82.90
72277;SHT30;61204;49.980;8.358;2023-04-19T03:51:16;9.70;83.05
72277;SHT30;61204;49.980;8.358;2023-04-19T03:53:42;9.67;83.03
72277;SHT30;61204;49.980;8.358;2023-04-19T03:56:08;9.67;83.27
72277;SHT30;61204;49.980;8.358;2023-04-19T03:58:33;9.63;83.30
72277;SHT30;61204;49.980;8.358;2023-04-19T04:00:59;9.59;83.52
72277;SHT30;61204;49.980;8.358;2023-04-19T04:03:25;9.55;83.60
72277;SHT30;61204;49.980;8.358;2023-04-19T04:05:51;9.48;83.81
72277;SHT30;61204;49.980;8.358;2023-04-19T04:08:19;9.42;83.70
72277;SHT30;61204;49.980;8.358;2023-04-19T04:10:44;9.39;83.93
72277;SHT30;61204;49.980;8.358;2023-04-19T04:13:10;9.34;84.23
72277;SHT30;61204;49.980;8.358;2023-04-19T04:15:35;9.31;84.35
72277;SHT30;61204;49.980;8.358;2023-04-19T04:18:01;9.24;84.39
72277;SHT30;61204;49.980;8.358;2023-04-19T04:20:28;9.24;84.48
72277;SHT30;61204;49.980;8.358;2023-04-19T04:22:53;9.15;84.59
72277;SHT30;61204;49.980;8.358;2023-04-19T04:25:19;9.14;84.94
72277;SHT30;61204;49.980;8.358;2023-04-19T04:27:45;9.18;84.90
72277;SHT30;61204;49.980;8.358;2023-04-19T04:30:11;9.18;84.91
72277;SHT30;61204;49.980;8.358;2023-04-19T04:32:37;9.14;85.19
72277;SHT30;61204;49.980;8.358;2023-04-19T04:35:06;9.15;85.22
72277;SHT30;61204;49.980;8.358;2023-04-19T04:37:34;9.18;85.22
72277;SHT30;61204;49.980;8.358;2023-04-19T04:40:03;9.22;85.37
72277;SHT30;61204;49.980;8.358;2023-04-19T04:42:33;9.30;85.14
72277;SHT30;61204;49.980;8.358;2023-04-19T04:44:58;9.35;85.00
72277;SHT30;61204;49.980;8.358;2023-04-19T04:47:34;9.36;85.24
72277;SHT30;61204;49.980;8.358;2023-04-19T04:50:00;9.39;85.36
72277;SHT30;61204;49.980;8.358;2023-04-19T04:52:26;9.45;85.32
72277;SHT30;61204;49.980;8.358;2023-04-19T04:54:55;9.50;85.49
72277;SHT30;61204;49.980;8.358;2023-04-19T04:57:20;9.52;85.26
72277;SHT30;61204;49.980;8.358;2023-04-19T04:59:46;9.56;85.46
72277;SHT30;61204;49.980;8.358;2023-04-19T05:02:14;9.63;85.38
72277;SHT30;61204;49.980;8.358;2023-04-19T05:04:40;9.62;85.32
72277;SHT30;61204;49.980;8.358;2023-04-19T05:07:06;9.70;85.62
72277;SHT30;61204;49.980;8.358;2023-04-19T05:09:32;9.80;85.06
72277;SHT30;61204;49.980;8.358;2023-04-19T05:11:57;9.80;85.33
72277;SHT30;61204;49.980;8.358;2023-04-19T05:14:22;9.87;84.96
72277;SHT30;61204;49.980;8.358;2023-04-19T05:16:48;9.96;85.11
72277;SHT30;61204;49.980;8.358;2023-04-19T05:19:13;10.01;85.02
72277;SHT30;61204;49.980;8.358;2023-04-19T05:21:39;10.08;84.47
72277;SHT30;61204;49.980;8.358;2023-04-19T05:24:07;10.14;84.22
72277;SHT30;61204;49.980;8.358;2023-04-19T05:26:34;10.13;84.14
72277;SHT30;61204;49.980;8.358;2023-04-19T05:28:59;10.14;84.06
72277;SHT30;61204;49.980;8.358;2023-04-19T05:31:25;10.17;83.99
72277;SHT30;61204;49.980;8.358;2023-04-19T05:33:50;10.17;83.57
72277;SHT30;61204;49.980;8.358;2023-04-19T05:36:16;10.22;83.44
72277;SHT30;61204;49.980;8.358;2023-04-19T05:38:41;10.22;83.49
72277;SHT30;61204;49.980;8.358;2023-04-19T05:41:07;10.25;83.25
72277;SHT30;61204;49.980;8.358;2023-04-19T05:43:32;10.31;82.79
72277;SHT30;61204;49.980;8.358;2023-04-19T05:45:57;10.32;82.66
72277;SHT30;61204;49.980;8.358;2023-04-19T05:48:23;10.35;82.64
72277;SHT30;61204;49.980;8.358;2023-04-19T05:50:50;10.39;82.39
72277;SHT30;61204;49.980;8.358;2023-04-19T05:53:18;10.42;82.12
72277;SHT30;61204;49.980;8.358;2023-04-19T05:55:43;10.45;81.99
72277;SHT30;61204;49.980;8.358;2023-04-19T05:58:09;10.52;81.54
72277;SHT30;61204;49.980;8.358;2023-04-19T06:00:35;10.63;81.30
72277;SHT30;61204;49.980;8.358;2023-04-19T06:03:03;10.75;81.05
72277;SHT30;61204;49.980;8.358;2023-04-19T06:05:28;11.13;79.93
72277;SHT30;61204;49.980;8.358;2023-04-19T06:07:54;11.41;78.92
72277;SHT30;61204;49.980;8.358;2023-04-19T06:10:21;11.59;77.87
72277;SHT30;61204;49.980;8.358;2023-04-19T06:12:47;11.63;77.48
72277;SHT30;61204;49.980;8.358;2023-04-19T06:15:13;11.67;76.64
72277;SHT30;61204;49.980;8.358;2023-04-19T06:17:38;11.75;76.78
72277;SHT30;61204;49.980;8.358;2023-04-19T06:20:04;11.82;76.84
72277;SHT30;61204;49.980;8.358;2023-04-19T06:22:40;11.86;76.00
72277;SHT30;61204;49.980;8.358;2023-04-19T06:25:09;11.79;75.97
72277;SHT30;61204;49.980;8.358;2023-04-19T06:27:35;11.91;74.48
72277;SHT30;61204;49.980;8.358;2023-04-19T06:30:03;11.86;74.62
72277;SHT30;61204;49.980;8.358;2023-04-19T06:32:29;11.95;74.67
72277;SHT30;61204;49.980;8.358;2023-04-19T06:34:57;11.91;74.15
72277;SHT30;61204;49.980;8.358;2023-04-19T06:37:22;11.94;73.92
72277;SHT30;61204;49.980;8.358;2023-04-19T06:39:48;12.18;74.02
72277;SHT30;61204;49.980;8.358;2023-04-19T06:42:13;12.31;72.91
72277;SHT30;61204;49.980;8.358;2023-04-19T06:44:39;12.46;72.19
72277;SHT30;61204;49.980;8.358;2023-04-19T06:47:04;12.35;71.62
72277;SHT30;61204;49.980;8.358;2023-04-19T06:49:30;12.22;71.76
72277;SHT30;61204;49.980;8.358;2023-04-19T06:51:55;11.97;71.44
72277;SHT30;61204;49.980;8.358;2023-04-19T06:54:22;11.89;72.49
72277;SHT30;61204;49.980;8.358;2023-04-19T06:56:48;11.87;72.14
72277;SHT30;61204;49.980;8.358;2023-04-19T06:59:18;12.00;71.95
72277;SHT30;61204;49.980;8.358;2023-04-19T07:01:46;11.87;71.68
72277;SHT30;61204;49.980;8.358;2023-04-19T07:04:12;11.89;71.96
72277;SHT30;61204;49.980;8.358;2023-04-19T07:06:38;11.91;71.38
72277;SHT30;61204;49.980;8.358;2023-04-19T07:09:04;11.80;71.43
72277;SHT30;61204;49.980;8.358;2023-04-19T07:11:31;11.83;71.49
72277;SHT30;61204;49.980;8.358;2023-04-19T07:13:57;11.93;71.20
72277;SHT30;61204;49.980;8.358;2023-04-19T07:16:26;12.03;70.28
72277;SHT30;61204;49.980;8.358;2023-04-19T07:18:51;11.94;70.53
72277;SHT30;61204;49.980;8.358;2023-04-19T07:21:17;11.77;70.30
72277;SHT30;61204;49.980;8.358;2023-04-19T07:23:43;11.70;70.25
72277;SHT30;61204;49.980;8.358;2023-04-19T07:26:08;11.84;69.61
72277;SHT30;61204;49.980;8.358;2023-04-19T07:28:34;11.76;69.35
72277;SHT30;61204;49.980;8.358;2023-04-19T07:30:59;11.61;69.18
72277;SHT30;61204;49.980;8.358;2023-04-19T07:33:25;11.58;69.30
72277;SHT30;61204;49.980;8.358;2023-04-19T07:35:52;11.65;69.09
72277;SHT30;61204;49.980;8.358;2023-04-19T07:38:20;11.61;69.17
72277;SHT30;61204;49.980;8.358;2023-04-19T07:40:45;11.58;68.96
72277;SHT30;61204;49.980;8.358;2023-04-19T07:43:11;11.69;69.37
72277;SHT30;61204;49.980;8.358;2023-04-19T07:45:37;11.76;68.73
72277;SHT30;61204;49.980;8.358;2023-04-19T07:48:03;11.83;68.19
72277;SHT30;61204;49.980;8.358;2023-04-19T07:50:28;11.77;68.07
72277;SHT30;61204;49.980;8.358;2023-04-19T07:52:54;11.83;67.48
72277;SHT30;61204;49.980;8.358;2023-04-19T07:55:21;11.67;67.52
72277;SHT30;61204;49.980;8.358;2023-04-19T07:57:46;11.75;67.64
72277;SHT30;61204;49.980;8.358;2023-04-19T08:00:16;11.79;67.35
72277;SHT30;61204;49.980;8.358;2023-04-19T08:02:50;11.83;67.00
72277;SHT30;61204;49.980;8.358;2023-04-19T08:05:15;11.90;66.96
72277;SHT30;61204;49.980;8.358;2023-04-19T08:07:42;11.77;66.39
72277;SHT30;61204;49.980;8.358;2023-04-19T08:10:08;11.95;66.75
72277;SHT30;61204;49.980;8.358;2023-04-19T08:12:35;12.00;66.02
72277;SHT30;61204;49.980;8.358;2023-04-19T08:15:02;12.05;65.75
72277;SHT30;61204;49.980;8.358;2023-04-19T08:17:33;12.18;65.59
72277;SHT30;61204;49.980;8.358;2023-04-19T08:20:01;12.32;64.92
72277;SHT30;61204;49.980;8.358;2023-04-19T08:22:28;12.21;65.14
72277;SHT30;61204;49.980;8.358;2023-04-19T08:24:53;12.18;65.10
72277;SHT30;61204;49.980;8.358;2023-04-19T08:27:20;12.21;64.77
72277;SHT30;61204;49.980;8.358;2023-04-19T08:29:45;12.31;64.41
72277;SHT30;61204;49.980;8.358;2023-04-19T08:32:11;12.38;64.32
72277;SHT30;61204;49.980;8.358;2023-04-19T08:34:38;12.44;63.70
72277;SHT30;61204;49.980;8.358;2023-04-19T08:37:05;12.27;63.83
72277;SHT30;61204;49.980;8.358;2023-04-19T08:39:34;12.44;63.36
72277;SHT30;61204;49.980;8.358;2023-04-19T08:42:04;12.62;62.96
72277;SHT30;61204;49.980;8.358;2023-04-19T08:44:31;12.50;62.67
72277;SHT30;61204;49.980;8.358;2023-04-19T08:46:58;12.45;63.38
72277;SHT30;61204;49.980;8.358;2023-04-19T08:49:26;12.84;62.53
72277;SHT30;61204;49.980;8.358;2023-04-19T08:51:54;13.10;62.15
72277;SHT30;61204;49.980;8.358;2023-04-19T08:54:22;13.17;60.93
72277;SHT30;61204;49.980;8.358;2023-04-19T08:56:48;13.39;59.93
72277;SHT30;61204;49.980;8.358;2023-04-19T08:59:13;13.21;59.75
72277;SHT30;61204;49.980;8.358;2023-04-19T09:01:39;13.39;59.01
72277;SHT30;61204;49.980;8.358;2023-04-19T09:04:06;13.42;59.31
72277;SHT30;61204;49.980;8.358;2023-04-19T09:06:39;13.22;59.07
72277;SHT30;61204;49.980;8.358;2023-04-19T09:09:19;13.28;58.74
72277;SHT30;61204;49.980;8.358;2023-04-19T09:11:46;13.28;58.48
72277;SHT30;61204;49.980;8.358;2023-04-19T09:14:17;13.38;58.98
72277;SHT30;61204;49.980;8.358;2023-04-19T09:16:44;13.37;59.08
72277;SHT30;61204;49.980;8.358;2023-04-19T09:19:10;13.48;59.18
72277;SHT30;61204;49.980;8.358;2023-04-19T09:21:37;13.70;58.73
72277;SHT30;61204;49.980;8.358;2023-04-19T09:24:03;13.80;58.88
72277;SHT30;61204;49.980;8.358;2023-04-19T09:26:30;13.69;59.21
72277;SHT30;61204;49.980;8.358;2023-04-19T09:29:04;13.63;58.50
72277;SHT30;61204;49.980;8.358;2023-04-19T09:31:35;13.54;59.56
72277;SHT30;61204;49.980;8.358;2023-04-19T09:34:15;13.54;58.88
72277;SHT30;61204;49.980;8.358;2023-04-19T09:36:42;13.83;59.19
72277;SHT30;61204;49.980;8.358;2023-04-19T09:39:07;13.83;58.55
72277;SHT30;61204;49.980;8.358;2023-04-19T09:41:33;13.69;57.59
72277;SHT30;61204;49.980;8.358;2023-04-19T09:44:09;13.79;57.53
72277;SHT30;61204;49.980;8.358;2023-04-19T09:46:36;13.97;56.91
72277;SHT30;61204;49.980;8.358;2023-04-19T09:51:46;14.39;55.90
72277;SHT30;61204;49.980;8.358;2023-04-19T09:54:15;14.45;54.84
72277;SHT30;61204;49.980;8.358;2023-04-19T09:56:42;14.66;54.41
72277;SHT30;61204;49.980;8.358;2023-04-19T09:59:11;14.90;54.14
72277;SHT30;61204;49.980;8.358;2023-04-19T10:04:13;15.69;52.13
72277;SHT30;61204;49.980;8.358;2023-04-19T10:06:51;15.11;53.37
72277;SHT30;61204;49.980;8.358;2023-04-19T10:09:20;15.44;53.12
72277;SHT30;61204;49.980;8.358;2023-04-19T10:11:48;15.18;53.46
72277;SHT30;61204;49.980;8.358;2023-04-19T10:14:21;15.67;52.18
72277;SHT30;61204;49.980;8.358;2023-04-19T10:16:51;16.20;50.75
72277;SHT30;61204;49.980;8.358;2023-04-19T10:19:21;16.82;50.23
72277;SHT30;61204;49.980;8.358;2023-04-19T10:21:48;16.91;48.73
72277;SHT30;61204;49.980;8.358;2023-04-19T10:24:16;17.16;48.42
72277;SHT30;61204;49.980;8.358;2023-04-19T10:32:39;18.44;45.19
72277;SHT30;61204;49.980;8.358;2023-04-19T10:35:16;19.14;43.91
72277;SHT30;61204;49.980;8.358;2023-04-19T10:38:04;19.73;42.97
72277;SHT30;61204;49.980;8.358;2023-04-19T10:40:56;19.52;43.99
72277;SHT30;61204;49.980;8.358;2023-04-19T10:43:31;20.09;42.31
72277;SHT30;61204;49.980;8.358;2023-04-19T10:46:15;20.24;41.47
72277;SHT30;61204;49.980;8.358;2023-04-19T10:49:02;20.42;41.12
72277;SHT30;61204;49.980;8.358;2023-04-19T10:51:36;19.57;42.20
72277;SHT30;61204;49.980;8.358;2023-04-19T10:54:04;19.97;42.04
72277;SHT30;61204;49.980;8.358;2023-04-19T11:04:11;20.03;40.41
72277;SHT30;61204;49.980;8.358;2023-04-19T11:06:55;19.00;41.66
72277;SHT30;61204;49.980;8.358;2023-04-19T11:09:35;19.59;40.02
72277;SHT30;61204;49.980;8.358;2023-04-19T11:12:07;18.61;41.14
72277;SHT30;61204;49.980;8.358;2023-04-19T11:14:40;19.02;41.18
72277;SHT30;61204;49.980;8.358;2023-04-19T11:17:22;18.52;41.48
72277;SHT30;61204;49.980;8.358;2023-04-19T11:20:01;19.89;38.81
72277;SHT30;61204;49.980;8.358;2023-04-19T11:22:35;20.42;38.66
72277;SHT30;61204;49.980;8.358;2023-04-19T11:25:09;20.49;39.25
72277;SHT30;61204;49.980;8.358;2023-04-19T11:27:44;21.45;37.88
72277;SHT30;61204;49.980;8.358;2023-04-19T11:30:16;20.85;37.57
72277;SHT30;61204;49.980;8.358;2023-04-19T11:32:52;21.14;36.79
72277;SHT30;61204;49.980;8.358;2023-04-19T11:35:24;21.59;36.17
72277;SHT30;61204;49.980;8.358;2023-04-19T11:37:55;21.62;35.21
72277;SHT30;61204;49.980;8.358;2023-04-19T11:40:24;22.16;35.13
72277;SHT30;61204;49.980;8.358;2023-04-19T11:42:57;20.61;36.68
72277;SHT30;61204;49.980;8.358;2023-04-19T11:45:35;20.16;36.43
72277;SHT30;61204;49.980;8.358;2023-04-19T11:48:06;18.82;38.20
72277;SHT30;61204;49.980;8.358;2023-04-19T11:50:40;19.17;39.48
72277;SHT30;61204;49.980;8.358;2023-04-19T11:53:15;20.12;35.68
72277;SHT30;61204;49.980;8.358;2023-04-19T11:55:49;21.40;35.49
72277;SHT30;61204;49.980;8.358;2023-04-19T12:01:10;21.10;33.87
72277;SHT30;61204;49.980;8.358;2023-04-19T12:03:44;20.16;36.05
72277;SHT30;61204;49.980;8.358;2023-04-19T12:06:13;20.86;34.83
72277;SHT30;61204;49.980;8.358;2023-04-19T12:11:14;20.92;33.08
72277;SHT30;61204;49.980;8.358;2023-04-19T12:13:43;20.93;32.40
72277;SHT30;61204;49.980;8.358;2023-04-19T12:16:11;20.78;32.94
72277;SHT30;61204;49.980;8.358;2023-04-19T12:18:51;20.87;32.42
72277;SHT30;61204;49.980;8.358;2023-04-19T12:21:27;21.24;32.58
72277;SHT30;61204;49.980;8.358;2023-04-19T12:23:57;21.04;31.87
72277;SHT30;61204;49.980;8.358;2023-04-19T12:26:28;21.93;30.94
72277;SHT30;61204;49.980;8.358;2023-04-19T12:28:55;22.03;30.42
72277;SHT30;61204;49.980;8.358;2023-04-19T12:31:21;22.76;29.79
72277;SHT30;61204;49.980;8.358;2023-04-19T12:33:47;22.84;28.43
72277;SHT30;61204;49.980;8.358;2023-04-19T12:36:13;23.62;28.00
72277;SHT30;61204;49.980;8.358;2023-04-19T12:38:39;22.40;28.83
72277;SHT30;61204;49.980;8.358;2023-04-19T12:41:04;21.96;29.36
72277;SHT30;61204;49.980;8.358;2023-04-19T12:43:30;22.48;28.18
72277;SHT30;61204;49.980;8.358;2023-04-19T12:45:57;22.40;28.93
72277;SHT30;61204;49.980;8.358;2023-04-19T12:48:24;21.74;29.66
72277;SHT30;61204;49.980;8.358;2023-04-19T12:50:50;22.55;27.72
72277;SHT30;61204;49.980;8.358;2023-04-19T12:53:16;22.49;28.39
72277;SHT30;61204;49.980;8.358;2023-04-19T12:55:41;19.58;31.15
72277;SHT30;61204;49.980;8.358;2023-04-19T12:58:14;20.78;30.95
72277;SHT30;61204;49.980;8.358;2023-04-19T13:00:41;22.09;28.46
72277;SHT30;61204;49.980;8.358;2023-04-19T13:03:07;20.72;29.50
72277;SHT30;61204;49.980;8.358;2023-04-19T13:05:33;21.97;27.72
72277;SHT30;61204;49.980;8.358;2023-04-19T13:07:58;22.73;27.28
72277;SHT30;61204;49.980;8.358;2023-04-19T13:10:24;22.78;26.63
72277;SHT30;61204;49.980;8.358;2023-04-19T13:12:50;21.14;26.46
72277;SHT30;61204;49.980;8.358;2023-04-19T13:15:15;21.47;26.66
72277;SHT30;61204;49.980;8.358;2023-04-19T13:17:41;20.52;27.08
72277;SHT30;61204;49.980;8.358;2023-04-19T13:20:07;21.41;26.85
72277;SHT30;61204;49.980;8.358;2023-04-19T13:22:34;22.31;26.23
72277;SHT30;61204;49.980;8.358;2023-04-19T13:24:59;22.00;26.55
72277;SHT30;61204;49.980;8.358;2023-04-19T13:27:25;22.17;25.55
72277;SHT30;61204;49.980;8.358;2023-04-19T13:29:50;22.43;24.83
72277;SHT30;61204;49.980;8.358;2023-04-19T13:32:15;22.24;24.98
72277;SHT30;61204;49.980;8.358;2023-04-19T13:34:41;22.14;25.22
72277;SHT30;61204;49.980;8.358;2023-04-19T13:37:07;20.42;27.05
72277;SHT30;61204;49.980;8.358;2023-04-19T13:39:33;20.78;25.54
72277;SHT30;61204;49.980;8.358;2023-04-19T13:41:58;21.27;25.75
72277;SHT30;61204;49.980;8.358;2023-04-19T13:44:26;21.20;25.04
72277;SHT30;61204;49.980;8.358;2023-04-19T13:46:52;21.51;25.98
72277;SHT30;61204;49.980;8.358;2023-04-19T13:49:17;21.47;24.42
72277;SHT30;61204;49.980;8.358;2023-04-19T13:51:43;19.92;26.04
72277;SHT30;61204;49.980;8.358;2023-04-19T13:54:08;19.85;26.13
72277;SHT30;61204;49.980;8.358;2023-04-19T13:56:34;19.59;26.21
72277;SHT30;61204;49.980;8.358;2023-04-19T13:58:59;19.48;27.07
72277;SHT30;61204;49.980;8.358;2023-04-19T14:01:25;19.39;26.67
72277;SHT30;61204;49.980;8.358;2023-04-19T14:03:50;20.44;26.89
72277;SHT30;61204;49.980;8.358;2023-04-19T14:06:16;20.44;26.32
72277;SHT30;61204;49.980;8.358;2023-04-19T14:08:41;20.99;25.35
72277;SHT30;61204;49.980;8.358;2023-04-19T14:11:07;20.95;24.49
72277;SHT30;61204;49.980;8.358;2023-04-19T14:13:32;20.25;25.76
72277;SHT30;61204;49.980;8.358;2023-04-19T14:15:58;19.92;26.44
72277;SHT30;61204;49.980;8.358;2023-04-19T14:18:23;20.04;26.19
72277;SHT30;61204;49.980;8.358;2023-04-19T14:20:49;19.41;26.11
72277;SHT30;61204;49.980;8.358;2023-04-19T14:23:14;19.30;25.65
72277;SHT30;61204;49.980;8.358;2023-04-19T14:25:39;19.03;25.26
72277;SHT30;61204;49.980;8.358;2023-04-19T14:28:05;19.17;26.39
72277;SHT30;61204;49.980;8.358;2023-04-19T14:30:30;19.72;25.49
72277;SHT30;61204;49.980;8.358;2023-04-19T14:32:56;19.18;24.07
72277;SHT30;61204;49.980;8.358;2023-04-19T14:35:21;18.66;24.58
72277;SHT30;61204;49.980;8.358;2023-04-19T14:37:47;18.58;24.28
72277;SHT30;61204;49.980;8.358;2023-04-19T14:40:12;19.03;24.07
72277;SHT30;61204;49.980;8.358;2023-04-19T14:42:38;19.51;23.24
72277;SHT30;61204;49.980;8.358;2023-04-19T14:45:04;19.85;23.93
72277;SHT30;61204;49.980;8.358;2023-04-19T14:47:30;18.72;25.95
72277;SHT30;61204;49.980;8.358;2023-04-19T14:49:56;19.28;26.19
72277;SHT30;61204;49.980;8.358;2023-04-19T14:52:21;19.38;26.05
72277;SHT30;61204;49.980;8.358;2023-04-19T14:54:50;19.23;27.00
72277;SHT30;61204;49.980;8.358;2023-04-19T14:57:15;19.47;25.88
72277;SHT30;61204;49.980;8.358;2023-04-19T14:59:41;19.34;26.11
72277;SHT30;61204;49.980;8.358;2023-04-19T15:02:06;18.72;26.92
72277;SHT30;61204;49.980;8.358;2023-04-19T15:04:34;19.06;25.80
72277;SHT30;61204;49.980;8.358;2023-04-19T15:07:02;19.27;26.24
72277;SHT30;61204;49.980;8.358;2023-04-19T15:09:27;19.57;25.84
72277;SHT30;61204;49.980;8.358;2023-04-19T15:11:55;19.54;25.48
72277;SHT30;61204;49.980;8.358;2023-04-19T15:14:20;19.66;25.09
72277;SHT30;61204;49.980;8.358;2023-04-19T15:16:46;19.73;25.33
72277;SHT30;61204;49.980;8.358;2023-04-19T15:19:11;18.47;25.91
72277;SHT30;61204;49.980;8.358;2023-04-19T15:21:37;18.07;25.96
72277;SHT30;61204;49.980;8.358;2023-04-19T15:24:03;17.87;26.67
72277;SHT30;61204;49.980;8.358;2023-04-19T15:26:29;17.61;27.58
72277;SHT30;61204;49.980;8.358;2023-04-19T15:28:56;18.06;27.03
72277;SHT30;61204;49.980;8.358;2023-04-19T15:31:23;17.23;27.23
72277;SHT30;61204;49.980;8.358;2023-04-19T15:33:49;16.99;28.24
72277;SHT30;61204;49.980;8.358;2023-04-19T15:36:14;16.66;29.11
72277;SHT30;61204;49.980;8.358;2023-04-19T15:38:40;17.18;27.92
72277;SHT30;61204;49.980;8.358;2023-04-19T15:41:05;17.18;28.68
72277;SHT30;61204;49.980;8.358;2023-04-19T15:43:31;17.99;28.27
72277;SHT30;61204;49.980;8.358;2023-04-19T15:45:56;18.07;29.01
72277;SHT30;61204;49.980;8.358;2023-04-19T15:48:22;17.85;27.95
72277;SHT30;61204;49.980;8.358;2023-04-19T15:50:47;17.39;28.97
72277;SHT30;61204;49.980;8.358;2023-04-19T15:53:13;17.54;28.46
72277;SHT30;61204;49.980;8.358;2023-04-19T15:55:39;17.54;28.52
72277;SHT30;61204;49.980;8.358;2023-04-19T15:58:05;16.97;28.60